SAME/MDZ METAR and TAF weather

Enter ICAO airport designator
Station Type Date Time Source
SAME METAR 2022/01/29 10:00 UTC NOAA

SAME 291000Z 00000KT 9999 FEW045 20/16 Q1012


Station Type Date Time Source
SAME Decoded METAR 2022/01/29 10:00 UTC NOAA

Mendoza Aerodrome, Argentina (SAME) 32-50S 068-47W 704M
Jan 29, 2022 - 05:00 AM EST / 2022.01.29 1000 UTC
Wind: Calm:0
Visibility: greater than 7 mile(s):0
Sky conditions: mostly clear
Temperature: 68 F (20 C)
Dew Point: 60 F (16 C)
Relative Humidity: 77%
Pressure (altimeter): 29.88 in. Hg (1012 hPa)
ob: SAME 291000Z 00000KT 9999 FEW045 20/16 Q1012
cycle: 10

Station Type Date Time Source
SAME TAF 2022/01/29 06:18 UTC NOAA

TAF SAME 290500Z 2906/3006 20005KT 9999 FEW040 TX31/2920Z TN18/2910Z
BECMG 2919/2921 05005KT 9999 SCT040 FEW050TCU PROB40
TEMPO 3001/3005 16010KT 6000 TSRA BKN030 FEW040CB

Example: see airport list